Time;durP1;ratioP1;P1;durP2;ratioP2;P2;SDS_P1;SDS_P2;PMS_P1;PMS_P2;Temp;Humidity;BMP_temperature;BMP_pressure;BME280_temperature;BME280_humidity;BME280_pressure;Samples;Min_cycle;Max_cycle;Signal;HPM_P1;HPM_P2
2022/05/30 00:00:11;;;;;;;;;;;14.50;69.10;14.70;98702.00;;;;349763;27;87196;-89
2022/05/30 00:00:23;;;;;;;;;;;14.50;69.00;14.70;98701.00;;;;346792;28;83495;-87
2022/05/30 00:00:35;;;;;;;;;;;14.50;69.00;14.70;98703.00;;;;348423;27;87349;-89
2022/05/30 00:00:46;;;;;;;;;;;14.50;69.00;14.70;98698.00;;;;348148;27;83521;-88
2022/05/30 00:01:12;;;;;;;;;;;14.50;69.10;14.70;98702.00;;;;348429;27;83656;-88
2022/05/30 00:01:24;;;;;;;;;;;14.50;69.00;14.70;98704.00;;;;348418;27;83523;-87
2022/05/30 00:01:36;;;;;;;;;;;14.50;68.90;14.70;98701.00;;;;347048;28;87456;-87
2022/05/30 00:01:48;;;;;;;;;;;14.50;69.00;14.70;98710.00;;;;346929;28;83551;-88
2022/05/30 00:02:00;;;;;;;;;;;14.40;69.00;14.70;98711.00;;;;346759;28;87698;-88
2022/05/30 00:02:12;;;;;;;;;;;14.50;69.00;14.80;98705.00;;;;346891;28;83547;-88
2022/05/30 00:02:24;;;;;;;;;;;14.50;69.00;14.70;98702.00;;;;345617;28;87226;-88
2022/05/30 00:02:35;;;;;;;;;;;14.50;69.10;14.80;98706.00;;;;348314;27;82618;-87
2022/05/30 00:02:48;;;;;;;;;;;14.50;69.00;14.80;98708.00;;;;349786;27;88194;-88
2022/05/30 00:03:00;;;;;;;;;;;14.50;69.00;14.80;98705.00;;;;349879;27;83381;-88
2022/05/30 00:03:12;;;;;;;;;;;14.50;68.90;14.70;98700.00;;;;347030;28;83922;-87
2022/05/30 00:03:23;;;;;;;;;;;14.50;69.00;14.70;98697.00;;;;348489;27;82546;-88
2022/05/30 00:03:35;;;;;;;;;;;14.50;69.00;14.70;98699.00;;;;347010;28;87049;-87
2022/05/30 00:03:47;;;;;;;;;;;14.50;68.80;14.70;98700.00;;;;348570;27;83301;-87
2022/05/30 00:03:59;;;;;;;;;;;14.50;68.90;14.70;98711.00;;;;350885;27;84430;-87
2022/05/30 00:04:11;;;;;;;;;;;14.40;68.90;14.70;98703.00;;;;349925;27;83969;-87
2022/05/30 00:04:23;;;;;;;;;;;14.50;69.10;14.80;98700.00;;;;349623;27;87221;-88
2022/05/30 00:04:36;;;;;;;;;;;14.50;69.00;14.70;98704.00;;;;349142;27;84635;-87
2022/05/30 00:04:47;;;;;;;;;;;14.40;68.90;14.70;98704.00;;;;349530;27;88396;-88
2022/05/30 00:05:00;;;;;;;;;;;14.40;69.00;14.70;98705.00;;;;348395;27;83551;-88
2022/05/30 00:05:11;;;;;;;;;;;14.50;69.00;14.70;98702.00;;;;348443;27;86047;-88
2022/05/30 00:05:23;;;;;;;;;;;14.50;69.00;14.70;98702.00;;;;346999;28;83587;-87
2022/05/30 00:05:35;;;;;;;;;;;14.40;69.00;14.70;98702.00;;;;346981;28;87909;-88
2022/05/30 00:05:49;;;;;;;;;;;14.50;68.90;14.80;98703.00;;;;348247;27;83371;-88
2022/05/30 00:06:00;;;;;;;;;;;14.40;68.80;14.80;98706.00;;;;346915;28;86315;-88
2022/05/30 00:06:17;;;;;;;;;;;14.40;68.80;14.70;98704.00;;;;347171;28;83307;-87
2022/05/30 00:06:29;;;;;;;;;;;14.40;68.80;14.70;98700.00;;;;348437;27;86428;-87
2022/05/30 00:06:41;;;;;;;;;;;14.40;69.50;14.70;98697.00;;;;348369;27;83408;-88
2022/05/30 00:06:52;;;;;;;;;;;14.40;69.20;14.70;98708.00;;;;349953;27;83911;-87
2022/05/30 00:07:05;;;;;;;;;;;14.40;69.20;14.60;98706.00;;;;349028;27;83645;-88
2022/05/30 00:07:17;;;;;;;;;;;14.40;69.20;14.60;98703.00;;;;348800;27;87609;-87
2022/05/30 00:07:29;;;;;;;;;;;14.40;69.10;14.60;98700.00;;;;348368;27;83563;-87
2022/05/30 00:07:41;;;;;;;;;;;14.40;69.00;14.60;98700.00;;;;347011;28;86868;-88
2022/05/30 00:07:52;;;;;;;;;;;14.40;68.80;14.60;98694.00;;;;348416;27;83452;-87
2022/05/30 00:08:04;;;;;;;;;;;14.40;68.80;14.60;98691.00;;;;348275;27;87161;-87
2022/05/30 00:08:17;;;;;;;;;;;14.40;68.80;14.60;98701.00;;;;348514;27;82267;-87
2022/05/30 00:08:29;;;;;;;;;;;14.40;68.80;14.60;98696.00;;;;349863;27;85003;-87
2022/05/30 00:08:40;;;;;;;;;;;14.40;68.90;14.70;98698.00;;;;347066;28;83276;-87
2022/05/30 00:08:52;;;;;;;;;;;14.40;69.70;14.70;98703.00;;;;348416;27;86164;-87
2022/05/30 00:09:04;;;;;;;;;;;14.40;69.00;14.70;98690.00;;;;349556;27;82498;-87
2022/05/30 00:09:16;;;;;;;;;;;14.40;69.00;14.70;98701.00;;;;349802;27;87024;-88
2022/05/30 00:09:27;;;;;;;;;;;14.40;69.10;14.70;98697.00;;;;349877;27;83511;-87
2022/05/30 00:09:39;;;;;;;;;;;14.40;69.00;14.70;98708.00;;;;347029;28;87167;-88
2022/05/30 00:09:51;;;;;;;;;;;14.40;68.90;14.70;98701.00;;;;349931;27;82379;-87
2022/05/30 00:10:04;;;;;;;;;;;14.40;69.20;14.70;98706.00;;;;349420;27;87953;-88
2022/05/30 00:10:16;;;;;;;;;;;14.40;69.10;14.60;98700.00;;;;350273;27;83325;-87
2022/05/30 00:10:28;;;;;;;;;;;14.40;69.00;14.70;98706.00;;;;349765;27;86896;-87
2022/05/30 00:10:40;;;;;;;;;;;14.40;68.90;14.70;98703.00;;;;347123;28;83293;-88
2022/05/30 00:10:53;;;;;;;;;;;14.40;68.90;14.70;98699.00;;;;348503;27;84733;-86
2022/05/30 00:11:05;;;;;;;;;;;14.40;69.10;14.70;98699.00;;;;347004;28;83309;-87
2022/05/30 00:11:18;;;;;;;;;;;14.40;69.40;14.70;98706.00;;;;348236;27;87300;-87
2022/05/30 00:11:29;;;;;;;;;;;14.40;69.30;14.70;98703.00;;;;349940;27;82270;-87
2022/05/30 00:11:42;;;;;;;;;;;14.40;69.10;14.70;98700.00;;;;348316;27;86425;-88
2022/05/30 00:11:53;;;;;;;;;;;14.40;69.00;14.70;98705.00;;;;348463;27;82476;-88
2022/05/30 00:12:05;;;;;;;;;;;14.40;69.00;14.70;98691.00;;;;349782;27;87142;-87
2022/05/30 00:12:17;;;;;;;;;;;14.40;69.00;14.70;98698.00;;;;346873;28;83427;-88
2022/05/30 00:12:29;;;;;;;;;;;14.40;69.00;14.70;98703.00;;;;347001;28;86142;-88
2022/05/30 00:12:41;;;;;;;;;;;14.40;69.10;14.70;98700.00;;;;345693;28;82539;-88
2022/05/30 00:12:53;;;;;;;;;;;14.40;68.90;14.70;98702.00;;;;347001;28;87787;-88
2022/05/30 00:13:06;;;;;;;;;;;14.40;68.90;14.70;98711.00;;;;345242;28;83669;-87
2022/05/30 00:13:18;;;;;;;;;;;14.40;69.00;14.70;98704.00;;;;346026;28;87949;-87
2022/05/30 00:13:29;;;;;;;;;;;14.40;69.00;14.70;98703.00;;;;348493;27;83460;-88
2022/05/30 00:13:41;;;;;;;;;;;14.40;69.00;14.70;98697.00;;;;348451;27;84602;-88
2022/05/30 00:13:53;;;;;;;;;;;14.40;69.00;14.70;98706.00;;;;347138;28;82370;-87
2022/05/30 00:14:05;;;;;;;;;;;14.40;69.10;14.70;98700.00;;;;351040;27;86103;-87
2022/05/30 00:14:17;;;;;;;;;;;14.40;69.30;14.70;98702.00;;;;347092;28;83344;-88
2022/05/30 00:14:29;;;;;;;;;;;14.40;69.20;14.70;98705.00;;;;346976;28;87608;-88
2022/05/30 00:14:41;;;;;;;;;;;14.40;69.20;14.70;98707.00;;;;349837;27;83462;-88
2022/05/30 00:14:52;;;;;;;;;;;14.40;69.10;14.80;98699.00;;;;348335;27;87188;-88
2022/05/30 00:15:07;;;;;;;;;;;14.50;69.20;14.70;98694.00;;;;349890;27;83407;-88
2022/05/30 00:15:20;;;;;;;;;;;14.50;69.10;14.60;98707.00;;;;349707;27;86381;-88
2022/05/30 00:15:32;;;;;;;;;;;14.40;69.10;14.60;98700.00;;;;346789;28;83432;-88
2022/05/30 00:15:44;;;;;;;;;;;14.40;69.20;14.60;98696.00;;;;347026;28;83961;-88
2022/05/30 00:15:55;;;;;;;;;;;14.40;69.00;14.60;98707.00;;;;348502;27;82549;-88
2022/05/30 00:16:09;;;;;;;;;;;14.40;69.30;14.60;98698.00;;;;346544;27;87479;-87
2022/05/30 00:16:22;;;;;;;;;;;14.40;69.40;14.60;98699.00;;;;347178;27;83495;-88
2022/05/30 00:16:35;;;;;;;;;;;14.40;69.30;14.60;98701.00;;;;348560;27;85937;-87
2022/05/30 00:16:46;;;;;;;;;;;14.40;69.10;14.60;98698.00;;;;346229;28;83467;-88
2022/05/30 00:16:58;;;;;;;;;;;14.40;69.20;14.60;98694.00;;;;346013;28;86131;-88
2022/05/30 00:17:11;;;;;;;;;;;14.40;69.20;14.50;98695.00;;;;346019;28;82619;-87
2022/05/30 00:17:22;;;;;;;;;;;14.40;69.20;14.60;98698.00;;;;347398;28;87087;-87
2022/05/30 00:17:34;;;;;;;;;;;14.40;69.30;14.60;98690.00;;;;347170;28;83521;-87
2022/05/30 00:17:46;;;;;;;;;;;14.40;69.40;14.60;98700.00;;;;346001;28;87206;-87
2022/05/30 00:17:58;;;;;;;;;;;14.40;69.60;14.70;98697.00;;;;347439;27;83525;-88
2022/05/30 00:18:11;;;;;;;;;;;14.40;69.60;14.70;98692.00;;;;347520;28;87020;-87
2022/05/30 00:18:23;;;;;;;;;;;14.40;69.50;14.60;98698.00;;;;346110;28;83439;-88
2022/05/30 00:18:35;;;;;;;;;;;14.40;69.50;14.60;98691.00;;;;347419;28;88051;-87
2022/05/30 00:18:47;;;;;;;;;;;14.40;69.40;14.60;98693.00;;;;346091;28;83445;-88
2022/05/30 00:18:58;;;;;;;;;;;14.40;69.30;14.60;98698.00;;;;344490;28;87664;-87
2022/05/30 00:19:10;;;;;;;;;;;14.40;69.20;14.70;98700.00;;;;348751;27;83491;-88
2022/05/30 00:19:22;;;;;;;;;;;14.30;69.10;14.60;98700.00;;;;348627;27;87690;-87
2022/05/30 00:19:38;;;;;;;;;;;14.40;69.00;14.70;98700.00;;;;346045;28;85689;-88
2022/05/30 00:19:50;;;;;;;;;;;14.40;69.00;14.70;98700.00;;;;347293;28;87411;-88
2022/05/30 00:20:03;;;;;;;;;;;14.40;69.00;14.70;98698.00;;;;345823;28;83475;-88
2022/05/30 00:20:15;;;;;;;;;;;14.40;69.00;14.70;98693.00;;;;346203;28;84661;-87
2022/05/30 00:20:26;;;;;;;;;;;14.40;68.90;14.60;98700.00;;;;344773;28;82601;-87
2022/05/30 00:20:42;;;;;;;;;;;14.40;69.00;14.70;98699.00;;;;345968;28;88522;-88
2022/05/30 00:20:54;;;;;;;;;;;14.40;69.20;14.70;98705.00;;;;346181;28;83501;-87
2022/05/30 00:21:06;;;;;;;;;;;14.40;69.10;14.70;98694.00;;;;344707;28;86858;-87
2022/05/30 00:21:19;;;;;;;;;;;14.40;69.20;14.70;98695.00;;;;346076;28;82529;-87
2022/05/30 00:21:30;;;;;;;;;;;14.40;69.10;14.70;98695.00;;;;347381;28;86064;-88
2022/05/30 00:21:44;;;;;;;;;;;14.40;69.10;14.60;98699.00;;;;346152;28;83587;-88
2022/05/30 00:21:56;;;;;;;;;;;14.40;69.10;14.50;98698.00;;;;346021;28;86165;-87
2022/05/30 00:22:11;;;;;;;;;;;14.40;69.00;14.50;98693.00;;;;345759;28;83582;-88
2022/05/30 00:22:23;;;;;;;;;;;14.30;68.90;14.60;98690.00;;;;344712;28;84832;-87
2022/05/30 00:22:34;;;;;;;;;;;14.30;68.90;14.50;98698.00;;;;348253;27;82302;-87
2022/05/30 00:22:47;;;;;;;;;;;14.30;69.20;14.50;98700.00;;;;346037;28;87311;-88
2022/05/30 00:22:59;;;;;;;;;;;14.30;69.80;14.50;98697.00;;;;348951;27;82557;-88
2022/05/30 00:23:11;;;;;;;;;;;14.30;69.20;14.40;98695.00;;;;347328;28;87168;-88
2022/05/30 00:23:24;;;;;;;;;;;14.30;69.20;14.40;98701.00;;;;344437;28;84192;-88
2022/05/30 00:23:36;;;;;;;;;;;14.30;69.10;14.50;98699.00;;;;346027;28;87479;-87
2022/05/30 00:23:48;;;;;;;;;;;14.30;69.10;14.60;98698.00;;;;346168;28;83363;-88
2022/05/30 00:24:00;;;;;;;;;;;14.30;69.20;14.60;98700.00;;;;347378;28;87259;-88
2022/05/30 00:24:12;;;;;;;;;;;14.30;69.30;14.60;98700.00;;;;346168;28;83372;-87
2022/05/30 00:24:24;;;;;;;;;;;14.30;69.30;14.50;98701.00;;;;347394;28;87185;-88
2022/05/30 00:24:35;;;;;;;;;;;14.30;69.20;14.50;98704.00;;;;347462;27;83286;-88
2022/05/30 00:24:49;;;;;;;;;;;14.30;69.00;14.50;98701.00;;;;344661;28;86317;-87
2022/05/30 00:25:00;;;;;;;;;;;14.30;69.00;14.50;98688.00;;;;344576;28;83274;-88
2022/05/30 00:25:12;;;;;;;;;;;14.30;69.00;14.50;98697.00;;;;348430;27;86149;-87
2022/05/30 00:25:24;;;;;;;;;;;14.30;69.00;14.40;98697.00;;;;347394;28;83389;-88
2022/05/30 00:25:39;;;;;;;;;;;14.20;68.90;14.50;98705.00;;;;345626;28;88293;-87
2022/05/30 00:25:50;;;;;;;;;;;14.30;69.00;14.50;98703.00;;;;346112;28;83381;-87
2022/05/30 00:26:06;;;;;;;;;;;14.30;68.90;14.50;98701.00;;;;345895;28;86042;-87
2022/05/30 00:26:17;;;;;;;;;;;14.30;69.00;14.60;98701.00;;;;347558;28;83303;-87
2022/05/30 00:26:30;;;;;;;;;;;14.30;69.10;14.50;98699.00;;;;347400;28;86193;-87
2022/05/30 00:26:41;;;;;;;;;;;14.30;69.00;14.50;98703.00;;;;347433;28;83490;-87
2022/05/30 00:26:53;;;;;;;;;;;14.30;69.00;14.60;98707.00;;;;347452;28;87630;-87
2022/05/30 00:27:05;;;;;;;;;;;14.30;69.00;14.50;98700.00;;;;347520;28;83229;-88
2022/05/30 00:27:18;;;;;;;;;;;14.30;69.10;14.40;98693.00;;;;347479;28;87112;-87
2022/05/30 00:27:29;;;;;;;;;;;14.30;69.10;14.40;98703.00;;;;348879;27;83494;-87
2022/05/30 00:27:43;;;;;;;;;;;14.20;69.00;14.50;98707.00;;;;347408;28;86277;-87
2022/05/30 00:27:55;;;;;;;;;;;14.30;69.00;14.50;98705.00;;;;347426;28;83300;-87
2022/05/30 00:28:06;;;;;;;;;;;14.20;69.10;14.50;98703.00;;;;349099;27;86035;-87
2022/05/30 00:28:18;;;;;;;;;;;14.20;69.40;14.60;98704.00;;;;346904;28;82460;-88
2022/05/30 00:28:30;;;;;;;;;;;14.30;69.40;14.60;98701.00;;;;344455;28;88083;-87
2022/05/30 00:28:42;;;;;;;;;;;14.30;69.30;14.60;98703.00;;;;347514;28;82464;-87
2022/05/30 00:28:54;;;;;;;;;;;14.30;69.20;14.60;98700.00;;;;346129;28;86944;-87
2022/05/30 00:29:05;;;;;;;;;;;14.30;69.20;14.60;98706.00;;;;344802;28;83305;-87
2022/05/30 00:29:17;;;;;;;;;;;14.30;69.20;14.60;98705.00;;;;347110;28;86645;-87
2022/05/30 00:29:29;;;;;;;;;;;14.30;69.10;14.50;98709.00;;;;347565;28;83440;-87
2022/05/30 00:29:41;;;;;;;;;;;14.30;69.10;14.60;98703.00;;;;347340;28;86705;-87
2022/05/30 00:29:53;;;;;;;;;;;14.30;69.00;14.50;98700.00;;;;346130;28;82593;-87
2022/05/30 00:30:06;;;;;;;;;;;14.30;69.10;14.60;98704.00;;;;347410;28;87276;-88
2022/05/30 00:30:17;;;;;;;;;;;14.30;69.10;14.60;98705.00;;;;346224;28;83476;-87
2022/05/30 00:30:29;;;;;;;;;;;14.30;69.20;14.60;98705.00;;;;344575;28;87260;-87
2022/05/30 00:30:41;;;;;;;;;;;14.30;69.20;14.60;98699.00;;;;347475;28;83475;-87
2022/05/30 00:30:53;;;;;;;;;;;14.30;69.20;14.60;98700.00;;;;348958;27;83221;-87
2022/05/30 00:31:09;;;;;;;;;;;14.30;69.20;14.40;98700.00;;;;347183;28;82686;-87
2022/05/30 00:31:21;;;;;;;;;;;14.30;69.20;14.30;98701.00;;;;348629;27;86426;-87
2022/05/30 00:31:33;;;;;;;;;;;14.20;68.90;14.40;98700.00;;;;347420;28;83503;-87
2022/05/30 00:31:45;;;;;;;;;;;14.20;68.90;14.40;98708.00;;;;345948;28;86500;-87
2022/05/30 00:31:57;;;;;;;;;;;14.20;68.90;14.40;98701.00;;;;347525;28;83524;-87
2022/05/30 00:32:09;;;;;;;;;;;14.20;69.10;14.50;98698.00;;;;347028;28;87307;-87
2022/05/30 00:32:21;;;;;;;;;;;14.20;69.10;14.50;98706.00;;;;347667;28;82382;-87
2022/05/30 00:32:33;;;;;;;;;;;14.20;69.00;14.40;98709.00;;;;345813;28;86766;-88
2022/05/30 00:32:45;;;;;;;;;;;14.20;69.00;14.50;98699.00;;;;347411;28;83412;-87
2022/05/30 00:32:57;;;;;;;;;;;14.20;69.20;14.50;98693.00;;;;347389;28;87125;-87
2022/05/30 00:33:09;;;;;;;;;;;14.20;69.20;14.40;98700.00;;;;347612;28;82412;-87
2022/05/30 00:33:21;;;;;;;;;;;14.20;69.40;14.40;98698.00;;;;346128;28;83526;-87
2022/05/30 00:33:33;;;;;;;;;;;14.20;69.30;14.40;98705.00;;;;347529;28;82513;-87
2022/05/30 00:33:45;;;;;;;;;;;14.20;69.20;14.40;98704.00;;;;344547;28;87478;-87
2022/05/30 00:33:56;;;;;;;;;;;14.20;69.20;14.50;98705.00;;;;344679;28;83425;-88
2022/05/30 00:34:08;;;;;;;;;;;14.20;69.20;14.40;98701.00;;;;347059;28;86594;-87
2022/05/30 00:34:20;;;;;;;;;;;14.20;69.20;14.40;98699.00;;;;347485;28;83495;-87
2022/05/30 00:34:33;;;;;;;;;;;14.20;69.20;14.40;98707.00;;;;346425;27;84004;-88
2022/05/30 00:34:44;;;;;;;;;;;14.20;69.30;14.40;98694.00;;;;346182;28;83381;-87
2022/05/30 00:34:56;;;;;;;;;;;14.20;69.90;14.40;98703.00;;;;347391;28;87434;-88
2022/05/30 00:35:08;;;;;;;;;;;14.20;69.30;14.40;98702.00;;;;347460;28;83428;-87
2022/05/30 00:35:20;;;;;;;;;;;14.20;69.50;14.40;98696.00;;;;347371;28;87735;-87
2022/05/30 00:35:32;;;;;;;;;;;14.20;69.50;14.40;98705.00;;;;347261;28;84148;-88
2022/05/30 00:35:44;;;;;;;;;;;14.20;69.50;14.40;98699.00;;;;345905;28;87902;-88
2022/05/30 00:35:56;;;;;;;;;;;14.20;69.30;14.40;98706.00;;;;346204;28;83247;-87
2022/05/30 00:36:07;;;;;;;;;;;14.20;69.20;14.50;98697.00;;;;343342;28;86256;-87
2022/05/30 00:36:19;;;;;;;;;;;14.20;69.20;14.50;98703.00;;;;346164;28;83395;-88
2022/05/30 00:36:31;;;;;;;;;;;14.20;69.20;14.30;98700.00;;;;346019;28;87606;-87
2022/05/30 00:36:43;;;;;;;;;;;14.20;69.20;14.30;98700.00;;;;346086;28;83233;-87
2022/05/30 00:36:55;;;;;;;;;;;14.20;69.10;14.40;98696.00;;;;345973;28;87421;-87
2022/05/30 00:37:07;;;;;;;;;;;14.10;69.00;14.40;98701.00;;;;346955;28;82449;-87
2022/05/30 00:37:19;;;;;;;;;;;14.20;69.10;14.40;98701.00;;;;344552;28;85756;-87
2022/05/30 00:37:31;;;;;;;;;;;14.10;69.20;14.40;98700.00;;;;347465;28;83883;-88
2022/05/30 00:37:42;;;;;;;;;;;14.10;69.10;14.40;98706.00;;;;347374;28;87466;-87
2022/05/30 00:37:56;;;;;;;;;;;14.10;69.10;14.50;98705.00;;;;346123;28;82294;-87
2022/05/30 00:38:08;;;;;;;;;;;14.20;69.20;14.40;98696.00;;;;346845;28;86903;-88
2022/05/30 00:38:19;;;;;;;;;;;14.20;69.10;14.40;98699.00;;;;349074;27;82391;-88
2022/05/30 00:38:31;;;;;;;;;;;14.20;69.20;14.40;98709.00;;;;347406;28;85679;-88
2022/05/30 00:38:43;;;;;;;;;;;14.20;69.20;14.40;98697.00;;;;346137;28;83494;-87
2022/05/30 00:38:55;;;;;;;;;;;14.10;69.20;14.40;98707.00;;;;348870;27;83508;-87
2022/05/30 00:39:07;;;;;;;;;;;14.10;69.40;14.40;98699.00;;;;346093;28;83546;-87
2022/05/30 00:39:19;;;;;;;;;;;14.10;69.40;14.50;98697.00;;;;347028;28;86685;-88
2022/05/30 00:39:31;;;;;;;;;;;14.10;69.40;14.40;98703.00;;;;346132;28;82357;-87
2022/05/30 00:39:44;;;;;;;;;;;14.10;69.40;14.40;98703.00;;;;344643;28;86630;-87
2022/05/30 00:39:55;;;;;;;;;;;14.10;69.30;14.40;98696.00;;;;346172;28;83463;-87
2022/05/30 00:40:08;;;;;;;;;;;14.10;69.40;14.20;98695.00;;;;346619;28;87239;-88
2022/05/30 00:40:20;;;;;;;;;;;14.10;69.30;14.20;98704.00;;;;344754;28;82375;-87
2022/05/30 00:40:32;;;;;;;;;;;14.10;69.30;14.20;98701.00;;;;345900;28;87206;-87
2022/05/30 00:40:43;;;;;;;;;;;14.10;69.30;14.30;98703.00;;;;344699;28;83572;-87
2022/05/30 00:40:57;;;;;;;;;;;14.10;69.40;14.30;98706.00;;;;344563;28;86227;-87
2022/05/30 00:41:09;;;;;;;;;;;14.10;69.50;14.30;98708.00;;;;347109;28;82530;-88
2022/05/30 00:41:20;;;;;;;;;;;14.10;69.30;14.40;98700.00;;;;348782;27;83536;-88
2022/05/30 00:41:32;;;;;;;;;;;14.10;69.50;14.40;98707.00;;;;347625;28;82402;-87
2022/05/30 00:41:44;;;;;;;;;;;14.10;69.70;14.40;98700.00;;;;347403;28;87150;-87
2022/05/30 00:42:16;;;;;;;;;;;14.10;69.50;14.40;98702.00;;;;350405;27;83346;-88
2022/05/30 00:42:28;;;;;;;;;;;14.10;69.40;14.30;98710.00;;;;347036;28;87461;-88
2022/05/30 00:42:40;;;;;;;;;;;14.10;69.50;14.30;98705.00;;;;347449;28;83330;-87
2022/05/30 00:42:51;;;;;;;;;;;14.10;69.40;14.30;98711.00;;;;347520;28;87032;-87
2022/05/30 00:43:23;;;;;;;;;;;14.10;69.50;14.20;98706.00;;;;348631;27;83643;-88
2022/05/30 00:43:36;;;;;;;;;;;14.10;69.60;14.20;98708.00;;;;349931;27;87255;-87
2022/05/30 00:43:48;;;;;;;;;;;14.10;69.40;14.20;98708.00;;;;346190;28;82527;-88
2022/05/30 00:44:00;;;;;;;;;;;14.00;69.50;14.20;98712.00;;;;348850;27;85980;-88
2022/05/30 00:44:12;;;;;;;;;;;14.00;69.60;14.30;98706.00;;;;346174;28;83433;-87
2022/05/30 00:44:24;;;;;;;;;;;14.00;69.50;14.30;98705.00;;;;347374;28;87624;-86
2022/05/30 00:44:35;;;;;;;;;;;14.00;69.30;14.30;98705.00;;;;347499;28;83262;-88
2022/05/30 00:44:48;;;;;;;;;;;14.00;69.40;14.30;98703.00;;;;348873;27;85102;-87
2022/05/30 00:44:59;;;;;;;;;;;14.10;69.30;14.40;98702.00;;;;347501;28;82530;-87
2022/05/30 00:45:12;;;;;;;;;;;14.10;69.20;14.40;98710.00;;;;347429;28;86093;-87
2022/05/30 00:45:24;;;;;;;;;;;14.10;69.30;14.40;98711.00;;;;344738;28;84077;-88
2022/05/30 00:45:36;;;;;;;;;;;14.00;69.40;14.30;98707.00;;;;347145;28;86231;-87
2022/05/30 00:45:47;;;;;;;;;;;14.10;69.40;14.40;98704.00;;;;350312;27;82730;-88
2022/05/30 00:46:00;;;;;;;;;;;14.10;69.30;14.40;98703.00;;;;347342;27;88036;-87
2022/05/30 00:46:18;;;;;;;;;;;14.10;69.30;14.40;98713.00;;;;348912;27;83317;-88
2022/05/30 00:46:30;;;;;;;;;;;14.10;69.30;14.40;98708.00;;;;348729;27;86595;-88
2022/05/30 00:46:42;;;;;;;;;;;14.10;69.30;14.30;98709.00;;;;348840;27;82345;-87
2022/05/30 00:46:54;;;;;;;;;;;14.10;69.30;14.40;98703.00;;;;347473;28;86283;-87
2022/05/30 00:47:06;;;;;;;;;;;14.10;69.30;14.40;98708.00;;;;347382;28;82605;-87
2022/05/30 00:47:18;;;;;;;;;;;14.10;69.40;14.40;98710.00;;;;346055;28;84715;-88
2022/05/30 00:47:30;;;;;;;;;;;14.10;69.40;14.30;98708.00;;;;347525;28;83372;-87
2022/05/30 00:47:42;;;;;;;;;;;14.10;69.30;14.40;98707.00;;;;347363;28;87316;-87
2022/05/30 00:47:54;;;;;;;;;;;14.10;69.40;14.40;98711.00;;;;348879;27;82324;-88
2022/05/30 00:48:05;;;;;;;;;;;14.10;69.40;14.40;98704.00;;;;347466;28;86025;-88
2022/05/30 00:48:19;;;;;;;;;;;14.10;69.20;14.40;98704.00;;;;347552;28;82489;-88
2022/05/30 00:48:33;;;;;;;;;;;14.10;69.20;14.40;98707.00;;;;347295;28;87601;-88
2022/05/30 00:48:50;;;;;;;;;;;14.10;69.20;14.30;98709.00;;;;345989;28;83390;-88
2022/05/30 00:49:06;;;;;;;;;;;14.10;69.20;14.30;98703.00;;;;346983;28;85059;-88
2022/05/30 00:49:17;;;;;;;;;;;14.10;69.20;14.40;98705.00;;;;347991;27;83359;-88
2022/05/30 00:49:29;;;;;;;;;;;14.10;69.50;14.40;98701.00;;;;347273;28;87802;-88
2022/05/30 00:49:42;;;;;;;;;;;14.10;69.60;14.40;98711.00;;;;346090;28;83339;-88
2022/05/30 00:49:54;;;;;;;;;;;14.10;69.50;14.30;98709.00;;;;347340;27;87130;-87
2022/05/30 00:50:06;;;;;;;;;;;14.10;69.50;14.30;98710.00;;;;347498;28;83396;-88
2022/05/30 00:50:19;;;;;;;;;;;14.10;69.40;14.30;98707.00;;;;346152;28;85041;-88
2022/05/30 00:50:30;;;;;;;;;;;14.10;69.40;14.40;98702.00;;;;344687;28;83390;-87
2022/05/30 00:50:43;;;;;;;;;;;14.10;69.30;14.30;98705.00;;;;344527;28;84906;-87
2022/05/30 00:50:58;;;;;;;;;;;14.10;69.50;14.30;98705.00;;;;344765;28;83388;-88
2022/05/30 00:51:18;;;;;;;;;;;14.10;69.30;14.40;98710.00;;;;348681;27;86903;-88
2022/05/30 00:51:36;;;;;;;;;;;14.10;69.10;14.40;98704.00;;;;347621;28;83313;-87
2022/05/30 00:51:49;;;;;;;;;;;14.10;69.10;14.40;98704.00;;;;346026;28;84748;-87
2022/05/30 00:52:05;;;;;;;;;;;14.10;69.30;14.40;98695.00;;;;348528;27;83361;-87
2022/05/30 00:52:25;;;;;;;;;;;14.10;69.20;14.40;98693.00;;;;347313;28;87435;-88
2022/05/30 00:52:39;;;;;;;;;;;14.10;69.20;14.40;98698.00;;;;345936;28;83379;-87
2022/05/30 00:52:51;;;;;;;;;;;14.10;69.40;14.40;98708.00;;;;346025;28;86461;-87
2022/05/30 00:53:03;;;;;;;;;;;14.10;69.30;14.40;98704.00;;;;344847;28;83257;-88
2022/05/30 00:53:14;;;;;;;;;;;14.10;69.10;14.40;98700.00;;;;345984;28;87603;-87
2022/05/30 00:53:26;;;;;;;;;;;14.10;69.00;14.40;98701.00;;;;344757;28;82728;-88
2022/05/30 00:53:41;;;;;;;;;;;14.10;69.00;14.50;98700.00;;;;344690;28;86083;-88
2022/05/30 00:53:54;;;;;;;;;;;14.10;69.10;14.50;98702.00;;;;346048;28;83371;-88
2022/05/30 00:54:07;;;;;;;;;;;14.10;69.20;14.40;98702.00;;;;346065;28;87511;-88
2022/05/30 00:54:21;;;;;;;;;;;14.10;69.20;14.30;98698.00;;;;344746;28;83416;-87
2022/05/30 00:54:36;;;;;;;;;;;14.10;69.10;14.40;98689.00;;;;344470;28;88222;-88
2022/05/30 00:54:59;;;;;;;;;;;14.10;69.00;14.40;98694.00;;;;347562;28;83575;-87
2022/05/30 00:55:16;;;;;;;;;;;14.10;69.30;14.50;98698.00;;;;346425;28;87436;-88
2022/05/30 00:55:28;;;;;;;;;;;14.10;69.20;14.50;98691.00;;;;348835;27;83327;-87
2022/05/30 00:55:40;;;;;;;;;;;14.10;69.20;14.50;98701.00;;;;347489;28;84942;-88
2022/05/30 00:55:52;;;;;;;;;;;14.10;69.20;14.40;98691.00;;;;347469;28;83342;-87
2022/05/30 00:56:04;;;;;;;;;;;14.10;69.20;14.40;98698.00;;;;348990;27;88126;-87
2022/05/30 00:56:16;;;;;;;;;;;14.20;69.40;14.40;98685.00;;;;346200;28;83306;-87
2022/05/30 00:56:32;;;;;;;;;;;14.20;69.40;14.40;98693.00;;;;345943;28;87873;-87
2022/05/30 00:56:45;;;;;;;;;;;14.20;69.30;14.40;98701.00;;;;346089;28;83505;-88
2022/05/30 00:56:57;;;;;;;;;;;14.20;69.10;14.50;98692.00;;;;347389;28;87034;-87
2022/05/30 00:57:21;;;;;;;;;;;14.20;69.00;14.50;98698.00;;;;347600;28;82485;-88
2022/05/30 00:57:32;;;;;;;;;;;14.20;69.10;14.40;98702.00;;;;347421;28;87315;-87
2022/05/30 00:57:45;;;;;;;;;;;14.20;69.00;14.40;98700.00;;;;347454;28;83406;-87
2022/05/30 00:57:57;;;;;;;;;;;14.20;69.10;14.50;98699.00;;;;347325;28;85232;-88
2022/05/30 00:58:09;;;;;;;;;;;14.20;68.90;14.40;98695.00;;;;345832;28;82679;-87
2022/05/30 00:58:22;;;;;;;;;;;14.20;68.90;14.40;98699.00;;;;347268;27;83575;-88
2022/05/30 00:58:34;;;;;;;;;;;14.20;69.10;14.30;98703.00;;;;347394;28;83419;-87
2022/05/30 00:58:49;;;;;;;;;;;14.20;68.90;14.40;98694.00;;;;344566;28;87076;-88
2022/05/30 00:59:02;;;;;;;;;;;14.20;68.80;14.40;98706.00;;;;345998;28;83474;-87
2022/05/30 00:59:13;;;;;;;;;;;14.20;68.70;14.40;98705.00;;;;348774;27;87326;-87
2022/05/30 00:59:25;;;;;;;;;;;14.20;68.60;14.40;98699.00;;;;348808;27;83604;-87
2022/05/30 00:59:37;;;;;;;;;;;14.20;68.90;14.40;98689.00;;;;346007;28;87318;-88
2022/05/30 00:59:53;;;;;;;;;;;14.20;68.70;14.30;98702.00;;;;344726;28;83397;-88
2022/05/30 01:00:14;;;;;;;;;;;14.10;68.70;14.40;98701.00;;;;347355;28;87300;-87
2022/05/30 01:00:26;;;;;;;;;;;14.20;68.60;14.40;98698.00;;;;347273;28;83349;-88
2022/05/30 01:00:38;;;;;;;;;;;14.20;68.80;14.30;98696.00;;;;347184;27;88268;-87
2022/05/30 01:00:50;;;;;;;;;;;14.10;68.70;14.30;98695.00;;;;346092;28;83250;-87
2022/05/30 01:01:02;;;;;;;;;;;14.10;68.60;14.30;98698.00;;;;345561;28;87412;-88
2022/05/30 01:01:14;;;;;;;;;;;14.10;68.60;14.20;98704.00;;;;345973;28;82424;-88
2022/05/30 01:01:26;;;;;;;;;;;14.10;68.60;14.20;98696.00;;;;347362;28;83935;-88
2022/05/30 01:01:38;;;;;;;;;;;14.10;68.60;14.30;98692.00;;;;347476;28;82518;-88
2022/05/30 01:01:49;;;;;;;;;;;14.10;68.60;14.30;98694.00;;;;347402;28;87383;-88
2022/05/30 01:02:03;;;;;;;;;;;14.10;69.50;14.40;98689.00;;;;348667;27;82684;-88
2022/05/30 01:02:15;;;;;;;;;;;14.10;69.00;14.40;98690.00;;;;345999;28;88670;-87
2022/05/30 01:02:34;;;;;;;;;;;14.10;68.90;14.40;98695.00;;;;346011;28;83411;-88
2022/05/30 01:06:30;;;;;;;;;;;14.10;68.80;14.30;98695.00;;;;347409;28;87390;-88